首页
METAR-TAF:

METAR-TAF

机场 :

邁亞密國際機場

迈阿密, 佛罗里达州, 美国

纬度: 25-47-26N, 经度: 080-18-59W, 海拔: 3米

当前天气观测

该预报发布于57分钟前的15:53 UTC
风速7节,风向
温度 31°C
湿度 63%
气压 1016 hPa
能見度: 16.1公里
散云层高于3500英尺
多云层高于25000英尺

METAR: KMIA 231553Z 08007KT 10SM SCT035 BKN250 31/23 A2999 RMK AO2 SLP157 T03060233 $

时间: 12:50 (16:50 UTC)

预报

该预报发布于1小时和36分钟前的15:14 UTC
预报有效从23日的 15点(UTC)到 24日的 18点(UTC)
风速6节,风向东转东南
能見度: 10公里
散云层高于3000英尺
散云层高于25000英尺
从 23日的 1700点(UTC)
风速11节,风向
能見度: 10公里
散云层高于2500英尺
散云层高于25000英尺
从 24日的 0200点(UTC)
风速3节,风向多变
能見度: 10公里
少量云层高于2000英尺
散云层高于25000英尺
从 24日的 1400点(UTC)
风速9节,风向
能見度: 10公里
散云层高于2500英尺
散云层高于25000英尺

TAF: KMIA 231514Z 2315/2418 11006KT P6SM SCT030 SCT250 FM231700 10011KT P6SM SCT025 SCT250 FM240200 VRB03KT P6SM FEW020 SCT250 FM241400 09009KT P6SM SCT025 SCT250

超过4000个机场的气象观测和天气预报(METAR&TAF报告)。

可查询的气象台以黄色和红色小点在地图上表示。

将鼠标移到小点上方,可查看气象台名称。

然后点击查看天气观测和预报。

如需切换地图:点击带黑十字的绿色按钮放大地图;点击带横线的绿色按钮缩小地图;或者点击绿色箭头查看邻近地区的地图。


METAR-TAF: